createdAt,value
2022-09-13T00:00:08.272Z,131.60
2022-09-13T00:01:08.298Z,131.80
2022-09-13T00:02:08.302Z,127.70
2022-09-13T00:03:08.661Z,133.80
2022-09-13T00:04:08.220Z,138.00
2022-09-13T00:05:08.212Z,130.30
2022-09-13T00:06:08.182Z,126.40
2022-09-13T00:07:08.174Z,129.50
2022-09-13T00:08:08.590Z,128.20
2022-09-13T00:09:08.150Z,136.30
2022-09-13T00:10:08.141Z,136.70
2022-09-13T00:11:08.121Z,136.90
2022-09-13T00:12:08.114Z,132.60
2022-09-13T00:13:08.498Z,130.00
2022-09-13T00:14:08.082Z,132.60
2022-09-13T00:15:08.070Z,133.40
2022-09-13T00:16:08.099Z,129.00
2022-09-13T00:17:08.049Z,131.30
2022-09-13T00:18:08.370Z,127.30
2022-09-13T00:19:08.027Z,131.10
2022-09-13T00:20:08.008Z,137.50
2022-09-13T00:21:08.001Z,134.90
2022-09-13T00:22:07.986Z,132.10
2022-09-13T00:23:08.402Z,134.20
2022-09-13T00:24:07.958Z,135.00
2022-09-13T00:25:07.945Z,129.00
2022-09-13T00:26:07.939Z,130.90
2022-09-13T00:27:07.918Z,125.50
2022-09-13T00:28:08.338Z,142.60
2022-09-13T00:29:07.895Z,133.70
2022-09-13T00:30:07.888Z,128.20
2022-09-13T00:31:07.867Z,138.50
2022-09-13T00:32:07.913Z,141.50
2022-09-13T00:33:08.217Z,140.00
2022-09-13T00:34:07.837Z,135.00
2022-09-13T00:35:07.817Z,136.00
2022-09-13T00:36:07.806Z,141.20
2022-09-13T00:37:07.805Z,128.90
2022-09-13T00:38:08.123Z,143.20
2022-09-13T00:39:07.785Z,122.20
2022-09-13T00:40:07.803Z,138.80
2022-09-13T00:41:07.753Z,128.70
2022-09-13T00:42:07.732Z,147.20
2022-09-13T00:43:08.155Z,136.20
2022-09-13T00:44:07.756Z,133.20
2022-09-13T00:45:07.693Z,142.70
2022-09-13T00:46:07.734Z,144.30
2022-09-13T00:47:07.671Z,133.50
2022-09-13T00:48:08.083Z,148.40
2022-09-13T00:49:07.642Z,131.50
2022-09-13T00:50:07.633Z,138.80
2022-09-13T00:51:07.613Z,132.40
2022-09-13T00:52:07.606Z,145.40
2022-09-13T00:53:07.962Z,128.40
2022-09-13T00:54:07.576Z,139.80
2022-09-13T00:55:07.560Z,139.10
2022-09-13T00:56:07.551Z,131.90
2022-09-13T00:57:07.542Z,130.70
2022-09-13T00:58:07.874Z,144.30
2022-09-13T00:59:07.509Z,141.60
2022-09-13T01:00:07.511Z,132.30
2022-09-13T01:01:07.516Z,139.10
2022-09-13T01:02:07.519Z,135.80
2022-09-13T01:03:07.466Z,148.40
2022-09-13T01:04:10.816Z,138.30
2022-09-13T01:05:07.447Z,145.10
2022-09-13T01:06:07.426Z,144.80
2022-09-13T01:07:07.410Z,145.50
2022-09-13T01:08:07.399Z,141.70
2022-09-13T01:09:07.810Z,136.80
2022-09-13T01:10:07.376Z,127.40
2022-09-13T01:11:07.358Z,141.80
2022-09-13T01:12:07.338Z,139.50
2022-09-13T01:13:07.340Z,141.20
2022-09-13T01:14:07.747Z,144.20
2022-09-13T01:15:07.330Z,149.40
2022-09-13T01:16:07.344Z,142.80
2022-09-13T01:17:07.287Z,147.20
2022-09-13T01:18:07.271Z,143.00
2022-09-13T01:19:07.678Z,141.30
2022-09-13T01:20:07.244Z,142.10
2022-09-13T01:21:07.235Z,142.10
2022-09-13T01:22:07.218Z,145.40
2022-09-13T01:23:07.212Z,141.40
2022-09-13T01:24:07.549Z,143.20
2022-09-13T01:25:07.191Z,142.60
2022-09-13T01:26:07.173Z,139.80
2022-09-13T01:27:07.161Z,141.90
2022-09-13T01:28:07.157Z,143.60
2022-09-13T01:29:07.564Z,135.70
2022-09-13T01:30:07.115Z,140.80
2022-09-13T01:31:07.105Z,139.00
2022-09-13T01:32:07.157Z,143.20
2022-09-13T01:33:07.079Z,142.60
2022-09-13T01:34:07.493Z,143.60
2022-09-13T01:35:07.053Z,145.40
2022-09-13T01:36:07.049Z,144.20
2022-09-13T01:37:07.026Z,145.70
2022-09-13T01:38:07.012Z,143.30
2022-09-13T01:39:07.365Z,141.50
2022-09-13T01:40:07.045Z,117.90
2022-09-13T01:41:06.982Z,138.90
2022-09-13T01:42:06.970Z,141.40
2022-09-13T01:43:06.952Z,138.30
2022-09-13T01:44:07.291Z,151.10
2022-09-13T01:45:06.927Z,137.10
2022-09-13T01:46:06.955Z,138.20
2022-09-13T01:47:06.900Z,131.90
2022-09-13T01:48:06.897Z,147.20
2022-09-13T01:49:07.298Z,133.20
2022-09-13T01:50:06.861Z,143.30
2022-09-13T01:51:06.851Z,138.50
2022-09-13T01:52:06.840Z,137.40
2022-09-13T01:53:06.822Z,139.30
2022-09-13T01:54:07.247Z,136.30
2022-09-13T01:55:06.793Z,131.90
2022-09-13T01:56:06.786Z,139.00
2022-09-13T01:57:06.777Z,140.00
2022-09-13T01:58:06.757Z,145.60
2022-09-13T01:59:07.117Z,142.40
2022-09-13T02:00:06.736Z,139.80
2022-09-13T02:01:06.726Z,145.40
2022-09-13T02:02:06.767Z,141.00
2022-09-13T02:03:06.690Z,150.80
2022-09-13T02:04:07.116Z,155.50
2022-09-13T02:05:06.667Z,143.80
2022-09-13T02:06:06.658Z,139.60
2022-09-13T02:07:06.637Z,146.20
2022-09-13T02:08:06.636Z,143.60
2022-09-13T02:09:07.036Z,139.00
2022-09-13T02:10:06.612Z,136.70
2022-09-13T02:11:06.595Z,146.70
2022-09-13T02:12:06.587Z,142.60
2022-09-13T02:13:06.567Z,139.40
2022-09-13T02:14:06.914Z,149.30
2022-09-13T02:15:06.545Z,140.60
2022-09-13T02:16:06.571Z,146.90
2022-09-13T02:17:06.527Z,146.00
2022-09-13T02:18:06.506Z,134.30
2022-09-13T02:19:06.917Z,142.90
2022-09-13T02:20:06.480Z,143.60
2022-09-13T02:21:06.464Z,144.40
2022-09-13T02:22:06.461Z,147.20
2022-09-13T02:23:06.435Z,137.60
2022-09-13T02:24:06.853Z,146.10
2022-09-13T02:25:06.415Z,153.60
2022-09-13T02:26:06.404Z,146.60
2022-09-13T02:27:06.391Z,147.70
2022-09-13T02:28:06.382Z,147.10
2022-09-13T02:29:06.783Z,143.20
2022-09-13T02:30:06.356Z,156.50
2022-09-13T02:31:06.338Z,136.80
2022-09-13T02:32:06.320Z,149.60
2022-09-13T02:33:06.311Z,134.10
2022-09-13T02:34:06.686Z,139.60
2022-09-13T02:35:06.279Z,142.80
2022-09-13T02:36:06.275Z,135.60
2022-09-13T02:37:06.261Z,141.50
2022-09-13T02:38:06.248Z,139.20
2022-09-13T02:39:06.587Z,148.70
2022-09-13T02:40:06.255Z,141.40
2022-09-13T02:41:06.210Z,145.10
2022-09-13T02:42:09.221Z,150.40
2022-09-13T02:43:07.177Z,151.20
2022-09-13T02:44:06.602Z,143.30
2022-09-13T02:45:06.167Z,143.80
2022-09-13T02:46:06.196Z,143.40
2022-09-13T02:47:06.134Z,149.90
2022-09-13T02:48:06.126Z,137.30
2022-09-13T02:49:06.526Z,142.10
2022-09-13T02:50:06.088Z,142.30
2022-09-13T02:51:06.106Z,152.90
2022-09-13T02:52:06.076Z,136.60
2022-09-13T02:53:06.053Z,141.30
2022-09-13T02:54:06.056Z,138.00
2022-09-13T02:55:06.455Z,127.30
2022-09-13T02:56:06.018Z,148.10
2022-09-13T02:57:06.014Z,145.40
2022-09-13T02:58:05.994Z,130.70
2022-09-13T02:59:05.974Z,137.20
2022-09-13T03:00:06.358Z,150.00
2022-09-13T03:01:05.985Z,138.60
2022-09-13T03:02:06.006Z,130.50
2022-09-13T03:03:05.923Z,155.80
2022-09-13T03:04:05.913Z,131.80
2022-09-13T03:05:06.263Z,152.40
2022-09-13T03:06:05.882Z,150.10
2022-09-13T03:07:05.875Z,158.60
2022-09-13T03:08:05.865Z,148.90
2022-09-13T03:09:05.846Z,141.40
2022-09-13T03:10:06.170Z,156.10
2022-09-13T03:11:05.822Z,154.60
2022-09-13T03:12:05.829Z,158.30
2022-09-13T03:13:05.801Z,153.70
2022-09-13T03:14:05.791Z,139.60
2022-09-13T03:15:06.200Z,148.30
2022-09-13T03:16:05.852Z,146.10
2022-09-13T03:17:05.751Z,155.30
2022-09-13T03:18:05.738Z,149.50
2022-09-13T03:19:05.728Z,151.90
2022-09-13T03:20:06.111Z,154.60
2022-09-13T03:21:05.698Z,156.10
2022-09-13T03:22:05.692Z,148.80
2022-09-13T03:23:05.678Z,150.70
2022-09-13T03:24:05.659Z,155.90
2022-09-13T03:25:05.986Z,152.00
2022-09-13T03:26:05.630Z,151.60
2022-09-13T03:27:05.619Z,140.30
2022-09-13T03:28:05.616Z,160.30
2022-09-13T03:29:05.587Z,147.60
2022-09-13T03:30:06.012Z,160.90
2022-09-13T03:31:05.570Z,154.00
2022-09-13T03:32:05.609Z,154.80
2022-09-13T03:33:05.543Z,155.40
2022-09-13T03:34:05.535Z,151.60
2022-09-13T03:35:05.936Z,161.00
2022-09-13T03:36:05.508Z,152.70
2022-09-13T03:37:05.496Z,156.20
2022-09-13T03:38:05.494Z,152.50
2022-09-13T03:39:05.474Z,164.60
2022-09-13T03:40:05.869Z,154.00
2022-09-13T03:41:05.444Z,149.90
2022-09-13T03:42:05.439Z,164.60
2022-09-13T03:43:05.416Z,159.50
2022-09-13T03:44:05.404Z,160.60
2022-09-13T03:45:05.733Z,146.50
2022-09-13T03:46:05.434Z,143.40
2022-09-13T03:47:05.478Z,154.60
2022-09-13T03:48:05.353Z,166.20
2022-09-13T03:49:05.342Z,151.50
2022-09-13T03:50:05.751Z,157.90
2022-09-13T03:51:05.312Z,175.80
2022-09-13T03:52:05.302Z,168.00
2022-09-13T03:53:05.283Z,153.80
2022-09-13T03:54:05.281Z,152.70
2022-09-13T03:55:05.612Z,159.20
2022-09-13T03:56:05.251Z,165.00
2022-09-13T03:57:05.231Z,166.80
2022-09-13T03:58:05.223Z,163.30
2022-09-13T03:59:05.209Z,159.20
2022-09-13T04:00:06.200Z,172.50
2022-09-13T04:01:05.220Z,175.10
2022-09-13T04:02:05.234Z,167.50
2022-09-13T04:03:05.160Z,157.70
2022-09-13T04:04:05.148Z,175.50
2022-09-13T04:05:05.579Z,158.20
2022-09-13T04:06:05.131Z,160.70
2022-09-13T04:07:05.112Z,166.10
2022-09-13T04:08:05.105Z,163.60
2022-09-13T04:09:05.079Z,149.00
2022-09-13T04:10:05.389Z,166.50
2022-09-13T04:11:05.059Z,163.40
2022-09-13T04:12:05.040Z,157.20
2022-09-13T04:13:05.037Z,164.50
2022-09-13T04:14:05.018Z,162.10
2022-09-13T04:15:05.437Z,161.90
2022-09-13T04:16:05.041Z,172.50
2022-09-13T04:17:05.395Z,150.20
2022-09-13T04:18:05.046Z,164.70
2022-09-13T04:19:04.970Z,157.20
2022-09-13T04:20:05.346Z,165.70
2022-09-13T04:21:04.928Z,154.90
2022-09-13T04:22:04.927Z,164.50
2022-09-13T04:23:04.922Z,154.20
2022-09-13T04:24:04.967Z,169.90
2022-09-13T04:25:05.255Z,161.80
2022-09-13T04:26:04.867Z,158.80
2022-09-13T04:27:04.855Z,163.80
2022-09-13T04:28:04.844Z,158.20
2022-09-13T04:29:04.825Z,161.70
2022-09-13T04:30:05.126Z,161.40
2022-09-13T04:31:04.806Z,163.20
2022-09-13T04:32:04.783Z,158.80
2022-09-13T04:33:04.794Z,160.80
2022-09-13T04:34:04.772Z,145.10
2022-09-13T04:35:05.141Z,156.80
2022-09-13T04:36:04.733Z,151.80
2022-09-13T04:37:04.723Z,154.40
2022-09-13T04:38:04.713Z,160.30
2022-09-13T04:39:04.700Z,174.10
2022-09-13T04:40:04.820Z,152.80
2022-09-13T04:41:04.671Z,154.60
2022-09-13T04:42:04.672Z,150.20
2022-09-13T04:43:04.759Z,158.30
2022-09-13T04:44:04.948Z,143.50
2022-09-13T04:45:04.951Z,173.00
2022-09-13T04:46:04.652Z,146.00
2022-09-13T04:47:04.601Z,159.70
2022-09-13T04:48:04.581Z,155.30
2022-09-13T04:49:04.561Z,161.70
2022-09-13T04:50:04.981Z,174.40
2022-09-13T04:51:04.544Z,153.80
2022-09-13T04:52:11.525Z,161.30
2022-09-13T04:53:11.520Z,169.80
2022-09-13T04:54:15.283Z,168.50
2022-09-13T04:55:11.883Z,167.80
2022-09-13T04:56:11.486Z,172.80
2022-09-13T04:57:11.451Z,153.20
2022-09-13T04:58:11.457Z,161.00
2022-09-13T04:59:11.447Z,153.90
2022-09-13T05:00:11.893Z,158.40
2022-09-13T05:01:11.473Z,156.70
2022-09-13T05:02:11.440Z,160.10
2022-09-13T05:03:04.395Z,158.50
2022-09-13T05:04:04.374Z,151.20
2022-09-13T05:05:04.737Z,158.90
2022-09-13T05:06:04.354Z,158.20
2022-09-13T05:07:04.333Z,146.40
2022-09-13T05:08:04.332Z,152.30
2022-09-13T05:09:04.312Z,150.80
2022-09-13T05:10:04.301Z,150.80
2022-09-13T05:11:04.651Z,168.60
2022-09-13T05:12:04.269Z,152.20
2022-09-13T05:13:04.261Z,165.50
2022-09-13T05:14:04.251Z,162.00
2022-09-13T05:15:04.548Z,163.90
2022-09-13T05:16:04.283Z,159.60
2022-09-13T05:17:04.213Z,163.10
2022-09-13T05:18:04.201Z,159.90
2022-09-13T05:19:04.873Z,148.90
2022-09-13T05:20:04.171Z,167.90
2022-09-13T05:21:04.619Z,158.00
2022-09-13T05:22:04.147Z,147.20
2022-09-13T05:23:04.131Z,162.70
2022-09-13T05:24:04.129Z,157.80
2022-09-13T05:25:04.452Z,168.10
2022-09-13T05:26:04.090Z,161.40
2022-09-13T05:27:04.087Z,158.60
2022-09-13T05:28:04.068Z,156.80
2022-09-13T05:29:04.059Z,163.60
2022-09-13T05:30:04.049Z,158.80
2022-09-13T05:31:04.455Z,158.80
2022-09-13T05:32:04.018Z,158.70
2022-09-13T05:33:04.020Z,163.70
2022-09-13T05:34:03.998Z,164.90
2022-09-13T05:35:04.379Z,158.80
2022-09-13T05:36:05.036Z,164.20
2022-09-13T05:37:03.964Z,167.70
2022-09-13T05:38:04.050Z,156.70
2022-09-13T05:39:29.253Z,161.80
2022-09-13T05:40:11.707Z,151.70
2022-09-13T05:41:04.906Z,166.60
2022-09-13T05:42:03.904Z,155.40
2022-09-13T05:43:03.893Z,149.80
2022-09-13T05:44:12.104Z,159.70
2022-09-13T05:45:05.185Z,169.00
2022-09-13T05:46:03.871Z,164.10
2022-09-13T05:47:03.836Z,163.30
2022-09-13T05:48:03.825Z,162.00
2022-09-13T05:49:03.811Z,161.40
2022-09-13T05:50:15.833Z,162.50
2022-09-13T05:51:05.193Z,153.90
2022-09-13T05:52:03.766Z,172.10
2022-09-13T05:53:03.766Z,161.50
2022-09-13T05:54:03.753Z,164.70
2022-09-13T05:55:04.132Z,159.10
2022-09-13T05:56:03.714Z,166.10
2022-09-13T05:57:03.705Z,155.40
2022-09-13T05:58:03.694Z,159.30
2022-09-13T05:59:03.683Z,169.20
2022-09-13T06:00:03.663Z,165.40
2022-09-13T06:01:04.105Z,164.70
2022-09-13T06:02:03.667Z,169.60
2022-09-13T06:03:03.645Z,170.80
2022-09-13T06:04:03.620Z,170.80
2022-09-13T06:05:03.604Z,174.80
2022-09-13T06:06:03.956Z,177.30
2022-09-13T06:07:03.585Z,172.60
2022-09-13T06:08:03.561Z,170.90
2022-09-13T06:09:03.572Z,184.00
2022-09-13T06:10:03.533Z,187.50
2022-09-13T06:11:03.968Z,185.00
2022-09-13T06:12:03.520Z,182.20
2022-09-13T06:13:03.500Z,193.10
2022-09-13T06:14:03.482Z,174.00
2022-09-13T06:15:03.478Z,172.90
2022-09-13T06:16:03.865Z,179.70
2022-09-13T06:17:03.449Z,187.70
2022-09-13T06:18:03.428Z,188.30
2022-09-13T06:19:03.427Z,203.20
2022-09-13T06:20:03.404Z,189.00
2022-09-13T06:21:03.822Z,202.30
2022-09-13T06:22:03.385Z,190.10
2022-09-13T06:23:03.368Z,184.40
2022-09-13T06:24:03.356Z,188.40
2022-09-13T06:25:03.341Z,182.90
2022-09-13T06:26:03.761Z,183.70
2022-09-13T06:27:03.316Z,194.30
2022-09-13T06:28:03.299Z,193.10
2022-09-13T06:29:03.288Z,189.30
2022-09-13T06:30:03.267Z,177.60
2022-09-13T06:31:03.683Z,151.90
2022-09-13T06:32:03.238Z,160.20
2022-09-13T06:33:03.238Z,164.10
2022-09-13T06:34:03.227Z,153.50
2022-09-13T06:35:03.208Z,164.40
2022-09-13T06:36:03.230Z,147.50
2022-09-13T06:37:03.185Z,148.90
2022-09-13T06:38:03.167Z,135.70
2022-09-13T06:39:03.154Z,146.30
2022-09-13T06:40:03.218Z,141.60
2022-09-13T06:41:03.323Z,143.00
2022-09-13T06:42:03.115Z,137.60
2022-09-13T06:43:03.104Z,135.90
2022-09-13T06:44:03.085Z,144.10
2022-09-13T06:45:03.075Z,139.60
2022-09-13T06:46:03.206Z,139.00
2022-09-13T06:47:03.488Z,138.30
2022-09-13T06:48:03.044Z,119.10
2022-09-13T06:49:03.031Z,121.40
2022-09-13T06:50:03.014Z,133.30
2022-09-13T06:51:03.005Z,119.60
2022-09-13T06:52:03.011Z,120.00
2022-09-13T06:53:02.977Z,120.80
2022-09-13T06:54:02.960Z,134.70
2022-09-13T06:55:02.944Z,139.10
2022-09-13T06:56:02.932Z,119.70
2022-09-13T06:57:03.394Z,120.50
2022-09-13T06:58:02.903Z,118.60
2022-09-13T06:59:02.901Z,125.20
2022-09-13T07:00:02.898Z,116.10
2022-09-13T07:01:02.909Z,110.30
2022-09-13T07:02:03.274Z,120.30
2022-09-13T07:03:02.847Z,106.00
2022-09-13T07:04:02.833Z,106.40
2022-09-13T07:05:02.824Z,105.80
2022-09-13T07:06:02.803Z,102.90
2022-09-13T07:07:03.244Z,112.20
2022-09-13T07:08:02.786Z,112.30
2022-09-13T07:09:02.774Z,106.00
2022-09-13T07:10:02.752Z,97.10
2022-09-13T07:11:02.743Z,97.70
2022-09-13T07:12:03.059Z,105.20
2022-09-13T07:13:02.723Z,100.40
2022-09-13T07:14:02.702Z,112.90
2022-09-13T07:15:02.694Z,88.70
2022-09-13T07:16:02.728Z,100.20
2022-09-13T07:17:03.072Z,98.40
2022-09-13T07:18:02.642Z,94.30
2022-09-13T07:19:02.641Z,99.00
2022-09-13T07:20:02.625Z,90.20
2022-09-13T07:21:02.614Z,91.50
2022-09-13T07:22:02.984Z,98.70
2022-09-13T07:23:02.592Z,104.00
2022-09-13T07:24:02.579Z,103.50
2022-09-13T07:25:02.582Z,102.10
2022-09-13T07:26:02.542Z,104.30
2022-09-13T07:27:02.971Z,94.10
2022-09-13T07:28:02.533Z,99.70
2022-09-13T07:29:02.511Z,102.80
2022-09-13T07:30:02.492Z,101.80
2022-09-13T07:31:02.584Z,96.00
2022-09-13T07:32:02.844Z,99.70
2022-09-13T07:33:02.462Z,100.00
2022-09-13T07:34:02.442Z,98.30
2022-09-13T07:35:02.443Z,95.50
2022-09-13T07:36:02.430Z,93.90
2022-09-13T07:37:02.732Z,95.90
2022-09-13T07:38:02.399Z,95.60
2022-09-13T07:39:02.392Z,94.00
2022-09-13T07:40:02.449Z,97.80
2022-09-13T07:41:02.362Z,92.70
2022-09-13T07:42:02.722Z,89.90
2022-09-13T07:43:02.347Z,96.70
2022-09-13T07:44:02.326Z,92.70
2022-09-13T07:45:02.311Z,87.30
2022-09-13T07:46:02.357Z,98.70
2022-09-13T07:47:02.611Z,88.30
2022-09-13T07:48:02.283Z,94.30
2022-09-13T07:49:02.274Z,87.80
2022-09-13T07:50:02.251Z,90.40
2022-09-13T07:51:02.231Z,90.40
2022-09-13T07:52:02.604Z,93.20
2022-09-13T07:53:02.210Z,96.00
2022-09-13T07:54:02.200Z,90.30
2022-09-13T07:55:02.189Z,95.40
2022-09-13T07:56:02.172Z,96.80
2022-09-13T07:57:02.531Z,91.40
2022-09-13T07:58:02.146Z,88.50
2022-09-13T07:59:02.136Z,90.70
2022-09-13T08:00:02.120Z,92.90
2022-09-13T08:01:02.151Z,94.20
2022-09-13T08:02:02.243Z,88.70
2022-09-13T08:03:02.520Z,97.30
2022-09-13T08:04:02.062Z,88.70
2022-09-13T08:05:02.063Z,93.70
2022-09-13T08:06:02.053Z,87.80
2022-09-13T08:07:02.032Z,78.30
2022-09-13T08:08:02.407Z,66.60
2022-09-13T08:09:02.013Z,58.30
2022-09-13T08:10:01.996Z,31.80
2022-09-13T08:11:01.982Z,33.10
2022-09-13T08:12:01.962Z,34.50
2022-09-13T08:13:02.402Z,25.30
2022-09-13T08:14:01.954Z,32.30
2022-09-13T08:15:01.942Z,36.70
2022-09-13T08:16:01.982Z,43.80
2022-09-13T08:17:01.902Z,40.40
2022-09-13T08:18:02.333Z,41.00
2022-09-13T08:19:01.890Z,40.20
2022-09-13T08:20:01.892Z,38.10
2022-09-13T08:21:01.861Z,40.80
2022-09-13T08:22:01.834Z,31.10
2022-09-13T08:23:02.145Z,36.30
2022-09-13T08:24:01.820Z,37.20
2022-09-13T08:25:01.816Z,35.40
2022-09-13T08:26:01.792Z,40.20
2022-09-13T08:27:01.782Z,33.50
2022-09-13T08:28:02.202Z,35.60
2022-09-13T08:29:01.761Z,32.70
2022-09-13T08:30:01.732Z,36.60
2022-09-13T08:31:01.770Z,35.00
2022-09-13T08:32:01.713Z,29.50
2022-09-13T08:33:01.722Z,30.10
2022-09-13T08:34:01.791Z,36.80
2022-09-13T08:35:01.683Z,32.80
2022-09-13T08:36:01.653Z,32.50
2022-09-13T08:37:01.653Z,28.80
2022-09-13T08:38:02.006Z,35.30
2022-09-13T08:39:01.623Z,33.50
2022-09-13T08:40:01.697Z,34.40
2022-09-13T08:41:01.604Z,34.70
2022-09-13T08:42:01.612Z,33.10
2022-09-13T08:43:02.004Z,36.10
2022-09-13T08:44:01.552Z,37.40
2022-09-13T08:45:01.534Z,35.90
2022-09-13T08:46:08.556Z,41.50
2022-09-13T08:47:08.534Z,45.20
2022-09-13T08:48:08.861Z,44.00
2022-09-13T08:49:10.167Z,36.20
2022-09-13T08:50:08.492Z,38.70
2022-09-13T08:51:01.464Z,39.10
2022-09-13T08:52:08.468Z,36.40
2022-09-13T08:53:01.867Z,39.50
2022-09-13T08:54:08.445Z,32.60
2022-09-13T08:55:01.421Z,38.40
2022-09-13T08:56:01.407Z,37.30
2022-09-13T08:57:01.390Z,33.10
2022-09-13T08:58:01.819Z,39.10
2022-09-13T08:59:01.370Z,37.00
2022-09-13T09:00:01.362Z,33.10
2022-09-13T09:01:01.373Z,39.20
2022-09-13T09:02:01.333Z,32.90
2022-09-13T09:03:01.685Z,37.70
2022-09-13T09:04:01.297Z,38.20
2022-09-13T09:05:01.303Z,34.80
2022-09-13T09:06:01.269Z,37.30
2022-09-13T09:07:01.269Z,42.90
2022-09-13T09:08:01.256Z,36.00
2022-09-13T09:09:01.671Z,36.10
2022-09-13T09:10:01.220Z,33.90
2022-09-13T09:11:01.209Z,29.70
2022-09-13T09:12:01.201Z,38.30
2022-09-13T09:13:01.189Z,33.00
2022-09-13T09:14:01.169Z,37.00
2022-09-13T09:15:01.621Z,37.60
2022-09-13T09:16:01.169Z,37.20
2022-09-13T09:17:01.137Z,35.30
2022-09-13T09:18:01.123Z,36.60
2022-09-13T09:19:01.119Z,36.80
2022-09-13T09:20:01.095Z,34.10
2022-09-13T09:21:01.533Z,31.90
2022-09-13T09:22:01.074Z,32.60
2022-09-13T09:23:01.058Z,31.10
2022-09-13T09:24:01.040Z,33.50
2022-09-13T09:25:01.042Z,34.40
2022-09-13T09:26:01.450Z,36.10
2022-09-13T09:27:01.011Z,37.20
2022-09-13T09:28:00.989Z,32.90
2022-09-13T09:29:00.992Z,32.10
2022-09-13T09:30:00.986Z,38.40
2022-09-13T09:31:01.039Z,32.10
2022-09-13T09:32:01.352Z,36.20
2022-09-13T09:33:00.919Z,32.00
2022-09-13T09:34:00.948Z,29.00
2022-09-13T09:35:00.908Z,27.20
2022-09-13T09:36:00.890Z,30.90
2022-09-13T09:37:00.877Z,34.20
2022-09-13T09:38:01.239Z,27.60
2022-09-13T09:39:00.854Z,36.60
2022-09-13T09:40:00.914Z,31.00
2022-09-13T09:41:00.829Z,35.00
2022-09-13T09:42:00.809Z,29.30
2022-09-13T09:43:01.240Z,29.40
2022-09-13T09:44:00.790Z,33.80
2022-09-13T09:45:00.770Z,28.40
2022-09-13T09:46:00.832Z,32.90
2022-09-13T09:47:00.766Z,31.90
2022-09-13T09:48:00.745Z,38.40
2022-09-13T09:49:01.050Z,29.30
2022-09-13T09:50:00.717Z,32.60
2022-09-13T09:51:00.708Z,29.00
2022-09-13T09:52:00.698Z,35.40
2022-09-13T09:53:00.671Z,34.00
2022-09-13T09:54:00.670Z,29.90
2022-09-13T09:55:01.096Z,29.70
2022-09-13T09:56:00.639Z,36.40
2022-09-13T09:57:00.623Z,32.20
2022-09-13T09:58:00.614Z,31.20
2022-09-13T09:59:00.918Z,35.50
2022-09-13T10:00:00.602Z,33.10
2022-09-13T10:01:00.712Z,38.40
2022-09-13T10:02:00.627Z,33.20
2022-09-13T10:03:00.540Z,31.40
2022-09-13T10:04:00.537Z,28.90
2022-09-13T10:05:00.962Z,34.30
2022-09-13T10:06:00.510Z,35.20
2022-09-13T10:07:00.497Z,29.60
2022-09-13T10:08:00.479Z,34.90
2022-09-13T10:09:00.468Z,33.60
2022-09-13T10:10:00.458Z,32.60
2022-09-13T10:11:00.771Z,33.20
2022-09-13T10:12:00.441Z,31.10
2022-09-13T10:13:00.417Z,29.90
2022-09-13T10:14:01.049Z,31.00
2022-09-13T10:15:00.771Z,31.70
2022-09-13T10:16:00.383Z,33.30
2022-09-13T10:17:00.446Z,27.70
2022-09-13T10:18:00.359Z,27.50
2022-09-13T10:19:00.329Z,33.50
2022-09-13T10:20:00.340Z,26.40
2022-09-13T10:21:00.678Z,24.50
2022-09-13T10:22:00.299Z,25.90
2022-09-13T10:23:00.287Z,34.60
2022-09-13T10:24:00.279Z,21.20
2022-09-13T10:25:00.694Z,26.80
2022-09-13T10:26:00.258Z,23.80
2022-09-13T10:27:00.239Z,28.20
2022-09-13T10:28:00.219Z,28.10
2022-09-13T10:29:00.210Z,27.60
2022-09-13T10:30:00.215Z,31.30
2022-09-13T10:31:00.559Z,21.80
2022-09-13T10:32:00.179Z,24.00
2022-09-13T10:33:00.168Z,29.80
2022-09-13T10:34:00.150Z,26.10
2022-09-13T10:35:00.572Z,24.80
2022-09-13T10:36:00.140Z,18.90
2022-09-13T10:37:00.110Z,26.80
2022-09-13T10:38:00.108Z,27.30
2022-09-13T10:39:00.091Z,25.50
2022-09-13T10:40:00.135Z,25.30
2022-09-13T10:41:00.500Z,23.60
2022-09-13T10:42:00.138Z,26.90
2022-09-13T10:43:00.070Z,23.00
2022-09-13T10:44:00.062Z,24.10
2022-09-13T10:45:00.019Z,20.30
2022-09-13T10:46:00.423Z,22.40
2022-09-13T10:46:59.996Z,17.70
2022-09-13T10:47:59.990Z,20.80
2022-09-13T10:48:59.987Z,14.80
2022-09-13T10:49:59.952Z,12.60
2022-09-13T10:50:59.933Z,17.00
2022-09-13T10:52:00.265Z,17.70
2022-09-13T10:52:59.927Z,16.90
2022-09-13T10:53:59.898Z,20.30
2022-09-13T10:54:59.880Z,21.00
2022-09-13T10:55:59.879Z,14.90
2022-09-13T10:56:59.857Z,16.50
2022-09-13T10:58:00.199Z,15.10
2022-09-13T10:58:59.832Z,15.80
2022-09-13T10:59:59.827Z,10.50
2022-09-13T11:00:59.839Z,8.60
2022-09-13T11:01:59.801Z,10.40
2022-09-13T11:02:59.779Z,7.80
2022-09-13T11:04:00.235Z,11.30
2022-09-13T11:04:59.749Z,9.60
2022-09-13T11:05:59.739Z,11.70
2022-09-13T11:07:02.096Z,10.40
2022-09-13T11:07:59.727Z,11.00
2022-09-13T11:08:59.702Z,12.00
2022-09-13T11:10:00.125Z,13.00
2022-09-13T11:10:59.677Z,12.90
2022-09-13T11:11:59.677Z,15.40
2022-09-13T11:12:59.655Z,13.10
2022-09-13T11:14:00.089Z,10.00
2022-09-13T11:14:59.628Z,13.60
2022-09-13T11:15:59.616Z,14.90
2022-09-13T11:16:59.652Z,12.70
2022-09-13T11:17:59.601Z,11.60
2022-09-13T11:18:59.570Z,8.80
2022-09-13T11:19:59.980Z,13.00
2022-09-13T11:20:59.575Z,12.50
2022-09-13T11:21:59.549Z,11.20
2022-09-13T11:22:59.528Z,12.10
2022-09-13T11:23:59.521Z,12.80
2022-09-13T11:24:59.489Z,12.40
2022-09-13T11:25:59.939Z,13.20
2022-09-13T11:26:59.488Z,10.10
2022-09-13T11:28:06.962Z,12.90
2022-09-13T11:29:06.450Z,16.00
2022-09-13T11:30:06.766Z,16.20
2022-09-13T11:31:06.422Z,16.10
2022-09-13T11:32:06.463Z,12.70
2022-09-13T11:33:06.401Z,12.70
2022-09-13T11:33:59.380Z,14.00
2022-09-13T11:34:59.817Z,8.90
2022-09-13T11:35:59.381Z,10.30
2022-09-13T11:36:59.349Z,6.30
2022-09-13T11:37:59.338Z,5.50
2022-09-13T11:38:59.329Z,5.80
2022-09-13T11:39:59.335Z,7.00
2022-09-13T11:40:59.748Z,6.00
2022-09-13T11:41:59.279Z,4.80
2022-09-13T11:42:59.271Z,4.90
2022-09-13T11:43:59.270Z,7.20
2022-09-13T11:44:59.253Z,5.80
2022-09-13T11:45:59.257Z,5.90
2022-09-13T11:46:59.600Z,6.90
2022-09-13T11:47:59.220Z,8.10
2022-09-13T11:48:59.189Z,7.20
2022-09-13T11:49:59.191Z,4.80
2022-09-13T11:50:59.187Z,6.40
2022-09-13T11:51:59.460Z,8.10
2022-09-13T11:52:59.151Z,9.80
2022-09-13T11:53:59.139Z,6.80
2022-09-13T11:54:59.109Z,8.60
2022-09-13T11:55:59.115Z,3.70
2022-09-13T11:56:59.106Z,5.30
2022-09-13T11:57:59.518Z,4.20
2022-09-13T11:58:59.079Z,5.10
2022-09-13T11:59:59.049Z,5.30
2022-09-13T12:00:59.057Z,5.10
2022-09-13T12:01:59.175Z,6.90
2022-09-13T12:02:59.195Z,5.10
2022-09-13T12:03:59.009Z,6.70
2022-09-13T12:05:59.989Z,6.10
2022-09-13T12:06:59.299Z,7.50
2022-09-13T12:07:59.531Z,4.90
2022-09-13T12:08:58.940Z,5.50
2022-09-13T12:09:58.931Z,7.10
2022-09-13T12:10:58.918Z,5.40
2022-09-13T12:11:58.907Z,5.80
2022-09-13T12:12:58.929Z,8.50
2022-09-13T12:13:58.883Z,7.90
2022-09-13T12:14:58.884Z,7.20
2022-09-13T12:15:58.848Z,6.30
2022-09-13T12:16:59.231Z,7.40
2022-09-13T12:17:58.828Z,5.40
2022-09-13T12:18:58.810Z,7.50
2022-09-13T12:19:58.807Z,6.10
2022-09-13T12:20:58.787Z,7.80
2022-09-13T12:21:58.832Z,5.60
2022-09-13T12:22:59.102Z,6.20
2022-09-13T12:23:58.759Z,3.80
2022-09-13T12:24:58.731Z,6.60
2022-09-13T12:25:58.737Z,5.40
2022-09-13T12:26:58.709Z,5.90
2022-09-13T12:27:58.749Z,6.40
2022-09-13T12:28:58.688Z,6.30
2022-09-13T12:29:58.679Z,8.40
2022-09-13T12:30:58.661Z,4.50
2022-09-13T12:31:58.683Z,4.90
2022-09-13T12:32:59.093Z,7.60
2022-09-13T12:33:59.061Z,4.40
2022-09-13T12:34:58.613Z,5.30
2022-09-13T12:35:58.600Z,5.60
2022-09-13T12:36:58.597Z,4.80
2022-09-13T12:37:58.899Z,7.00
2022-09-13T12:38:58.567Z,5.70
2022-09-13T12:39:58.576Z,2.80
2022-09-13T12:40:58.538Z,5.40